createdAt,value
2023-04-12T00:04:28.810Z,5.21
2023-04-12T00:14:50.386Z,5.16
2023-04-12T00:25:12.361Z,5.08
2023-04-12T00:35:33.701Z,4.97
2023-04-12T00:45:58.010Z,4.92
2023-04-12T00:56:24.037Z,4.88
2023-04-12T01:07:10.509Z,4.87
2023-04-12T01:17:38.152Z,4.83
2023-04-12T01:28:07.290Z,4.71
2023-04-12T01:38:29.287Z,4.61
2023-04-12T01:48:52.609Z,4.51
2023-04-12T01:59:16.277Z,4.49
2023-04-12T02:09:41.095Z,4.40
2023-04-12T02:20:03.868Z,4.37
2023-04-12T02:30:25.418Z,4.29
2023-04-12T02:40:48.142Z,4.24
2023-04-12T02:51:12.362Z,4.21
2023-04-12T03:01:39.474Z,4.11
2023-04-12T03:12:27.650Z,4.07
2023-04-12T03:23:07.380Z,4.01
2023-04-12T03:33:32.200Z,3.93
2023-04-12T03:43:57.649Z,3.86
2023-04-12T03:54:19.996Z,3.81
2023-04-12T04:04:51.792Z,3.75
2023-04-12T04:15:20.208Z,3.75
2023-04-12T04:25:42.414Z,3.72
2023-04-12T04:36:08.199Z,3.68
2023-04-12T04:46:32.437Z,3.67
2023-04-12T04:56:54.281Z,3.66
2023-04-12T05:07:17.346Z,3.64
2023-04-12T05:17:41.192Z,3.67
2023-04-12T05:28:02.942Z,3.69
2023-04-12T05:38:24.205Z,3.62
2023-04-12T05:48:50.031Z,3.58
2023-04-12T05:59:12.579Z,3.65
2023-04-12T06:09:34.361Z,3.73
2023-04-12T06:19:55.693Z,3.91
2023-04-12T06:30:17.241Z,4.04
2023-04-12T06:40:38.451Z,4.19
2023-04-12T06:50:59.406Z,4.31
2023-04-12T07:01:20.888Z,4.47
2023-04-12T07:11:42.005Z,4.63
2023-04-12T07:22:03.088Z,4.81
2023-04-12T07:32:24.316Z,5.02
2023-04-12T07:42:46.015Z,5.22
2023-04-12T07:53:42.367Z,5.48
2023-04-12T08:04:03.856Z,5.72
2023-04-12T08:14:25.779Z,5.93
2023-04-12T08:24:47.075Z,6.16
2023-04-12T08:35:09.778Z,6.41
2023-04-12T08:45:32.558Z,6.63
2023-04-12T08:55:54.237Z,6.75
2023-04-12T09:06:15.879Z,6.91
2023-04-12T09:16:42.030Z,7.02
2023-04-12T09:27:05.246Z,7.12
2023-04-12T09:37:26.557Z,7.23
2023-04-12T09:47:47.891Z,7.28
2023-04-12T09:58:10.075Z,7.38
2023-04-12T10:08:32.102Z,7.42
2023-04-12T10:18:55.358Z,7.53
2023-04-12T10:29:37.294Z,7.64
2023-04-12T10:39:58.588Z,7.76
2023-04-12T10:50:24.675Z,7.95
2023-04-12T11:00:58.797Z,8.13
2023-04-12T11:11:23.637Z,8.21
2023-04-12T11:21:44.977Z,8.30
2023-04-12T11:32:07.731Z,8.30
2023-04-12T11:42:29.641Z,8.25
2023-04-12T11:52:50.707Z,8.18
2023-04-12T12:03:12.825Z,8.20
2023-04-12T12:13:51.089Z,8.26
2023-04-12T12:24:14.841Z,8.28
2023-04-12T12:34:35.953Z,8.29
2023-04-12T12:44:57.031Z,8.33
2023-04-12T12:55:19.049Z,8.37
2023-04-12T13:05:40.068Z,8.39
2023-04-12T13:16:01.407Z,8.44
2023-04-12T13:26:25.975Z,8.47
2023-04-12T13:36:47.457Z,8.50
2023-04-12T13:47:08.707Z,8.51
2023-04-12T13:57:29.890Z,8.49
2023-04-12T14:07:52.739Z,8.44
2023-04-12T14:18:13.927Z,8.44
2023-04-12T14:28:35.678Z,8.46
2023-04-12T14:38:57.213Z,8.49
2023-04-12T14:49:18.714Z,8.53
2023-04-12T14:59:40.230Z,8.55
2023-04-12T15:10:01.758Z,8.56
2023-04-12T15:20:23.235Z,8.59
2023-04-12T15:30:44.594Z,8.63
2023-04-12T15:41:06.221Z,8.66
2023-04-12T15:51:28.530Z,8.66
2023-04-12T16:01:49.995Z,8.66
2023-04-12T16:12:11.849Z,8.64
2023-04-12T16:22:33.553Z,8.60
2023-04-12T16:32:54.913Z,8.59
2023-04-12T16:43:17.680Z,8.59
2023-04-12T16:53:38.901Z,8.59
2023-04-12T17:04:00.663Z,8.57
2023-04-12T17:14:22.682Z,8.54
2023-04-12T17:24:43.869Z,8.52
2023-04-12T17:35:07.395Z,8.46
2023-04-12T17:45:28.903Z,8.42
2023-04-12T17:55:50.830Z,8.38
2023-04-12T18:06:14.000Z,8.32
2023-04-12T18:16:35.339Z,8.27
2023-04-12T18:26:59.425Z,8.23
2023-04-12T18:37:20.975Z,8.18
2023-04-12T18:47:42.579Z,8.14
2023-04-12T18:58:03.512Z,8.09
2023-04-12T19:08:25.224Z,8.05
2023-04-12T19:18:46.745Z,8.00
2023-04-12T19:29:07.748Z,7.96
2023-04-12T19:39:29.715Z,7.91
2023-04-12T19:49:51.475Z,7.88
2023-04-12T20:00:19.799Z,7.84
2023-04-12T20:10:41.013Z,7.78
2023-04-12T20:21:02.305Z,7.70
2023-04-12T20:31:23.696Z,7.65
2023-04-12T20:41:50.259Z,7.58
2023-04-12T20:52:11.787Z,7.53
2023-04-12T21:02:33.015Z,7.51
2023-04-12T21:12:55.071Z,7.48
2023-04-12T21:23:19.375Z,7.46
2023-04-12T21:33:40.740Z,7.43
2023-04-12T21:44:02.058Z,7.41
2023-04-12T21:54:23.650Z,7.38
2023-04-12T22:04:45.173Z,7.36
2023-04-12T22:15:08.975Z,7.35
2023-04-12T22:25:30.485Z,7.33
2023-04-12T22:35:52.114Z,7.30
2023-04-12T22:46:18.861Z,7.26
2023-04-12T22:56:42.017Z,7.24
2023-04-12T23:07:02.992Z,7.22
2023-04-12T23:17:24.262Z,7.21
2023-04-12T23:27:46.571Z,7.17
2023-04-12T23:38:08.936Z,7.14
2023-04-12T23:48:31.750Z,7.13
2023-04-12T23:58:52.613Z,7.14
